createdAt,value
2017-05-11T00:02:21.969Z,8.20
2017-05-11T00:04:51.010Z,8.30
2017-05-11T00:07:20.057Z,8.30
2017-05-11T00:09:49.099Z,8.30
2017-05-11T00:12:18.257Z,8.30
2017-05-11T00:14:48.065Z,8.30
2017-05-11T00:17:17.121Z,8.30
2017-05-11T00:19:46.267Z,8.30
2017-05-11T00:22:16.167Z,8.40
2017-05-11T00:24:45.202Z,8.30
2017-05-11T00:27:14.256Z,8.20
2017-05-11T00:29:43.365Z,8.20
2017-05-11T00:32:13.272Z,8.20
2017-05-11T00:34:42.374Z,8.20
2017-05-11T00:37:12.189Z,8.10
2017-05-11T00:39:41.998Z,8.10
2017-05-11T00:42:11.809Z,8.10
2017-05-11T00:44:41.589Z,8.20
2017-05-11T00:47:10.722Z,8.10
2017-05-11T00:49:40.536Z,8.00
2017-05-11T00:52:10.362Z,8.00
2017-05-11T00:54:40.257Z,7.90
2017-05-11T00:57:09.305Z,7.90
2017-05-11T00:59:38.453Z,7.90
2017-05-11T01:02:07.491Z,7.90
2017-05-11T01:04:36.653Z,7.80
2017-05-11T01:07:06.433Z,7.70
2017-05-11T01:09:35.481Z,7.70
2017-05-11T01:12:04.571Z,7.60
2017-05-11T01:14:34.464Z,7.50
2017-05-11T01:17:04.240Z,7.50
2017-05-11T01:19:33.293Z,7.50
2017-05-11T01:22:02.332Z,7.50
2017-05-11T01:24:31.466Z,7.40
2017-05-11T01:27:01.237Z,7.30
2017-05-11T01:29:30.285Z,7.20
2017-05-11T01:32:00.092Z,7.20
2017-05-11T01:34:29.877Z,7.10
2017-05-11T01:36:59.002Z,7.10
2017-05-11T01:39:28.796Z,7.10
2017-05-11T01:41:57.830Z,7.10
2017-05-11T01:44:26.882Z,7.10
2017-05-11T01:46:55.993Z,7.10
2017-05-11T01:49:25.805Z,7.10
2017-05-11T01:51:55.599Z,7.10
2017-05-11T01:54:24.729Z,7.10
2017-05-11T01:56:54.534Z,7.00
2017-05-11T01:59:24.338Z,7.00
2017-05-11T02:01:54.126Z,7.00
2017-05-11T02:04:23.169Z,7.00
2017-05-11T02:06:52.264Z,7.00
2017-05-11T02:09:21.352Z,6.90
2017-05-11T02:11:51.146Z,6.80
2017-05-11T02:14:20.225Z,6.80
2017-05-11T02:16:49.280Z,6.80
2017-05-11T02:19:18.337Z,6.80
2017-05-11T02:21:48.155Z,6.80
2017-05-11T02:24:17.210Z,6.70
2017-05-11T02:26:46.375Z,6.70
2017-05-11T02:29:15.436Z,6.70
2017-05-11T02:31:45.229Z,6.70
2017-05-11T02:34:14.286Z,6.70
2017-05-11T02:36:43.330Z,6.70
2017-05-11T02:39:12.464Z,6.80
2017-05-11T02:41:41.529Z,6.80
2017-05-11T02:44:11.342Z,6.80
2017-05-11T02:46:41.164Z,6.70
2017-05-11T02:49:10.966Z,6.70
2017-05-11T02:51:40.744Z,6.70
2017-05-11T02:54:09.813Z,6.70
2017-05-11T02:56:38.837Z,6.70
2017-05-11T02:59:07.964Z,6.70
2017-05-11T03:01:37.746Z,6.70
2017-05-11T03:04:06.882Z,6.70
2017-05-11T03:06:36.697Z,6.60
2017-05-11T03:09:06.507Z,6.60
2017-05-11T03:11:36.277Z,6.50
2017-05-11T03:14:05.420Z,6.60
2017-05-11T03:16:35.223Z,6.50
2017-05-11T03:19:05.018Z,6.60
2017-05-11T03:21:34.051Z,6.60
2017-05-11T03:24:03.123Z,6.60
2017-05-11T03:26:32.172Z,6.60
2017-05-11T03:29:01.313Z,6.60
2017-05-11T03:31:30.348Z,6.70
2017-05-11T03:33:59.409Z,6.70
2017-05-11T03:36:28.446Z,6.80
2017-05-11T03:38:57.617Z,6.90
2017-05-11T03:41:27.414Z,6.90
2017-05-11T03:43:57.202Z,7.00
2017-05-11T03:46:26.293Z,7.00
2017-05-11T03:48:55.419Z,7.10
2017-05-11T03:51:25.241Z,7.10
2017-05-11T03:53:55.048Z,7.20
2017-05-11T03:56:24.862Z,7.20
2017-05-11T03:58:54.685Z,7.20
2017-05-11T04:01:24.478Z,7.30
2017-05-11T04:03:54.293Z,7.30
2017-05-11T04:06:24.083Z,7.40
2017-05-11T04:08:53.150Z,7.50
2017-05-11T04:11:22.210Z,7.60
2017-05-11T04:13:52.014Z,7.60
2017-05-11T04:16:21.804Z,7.70
2017-05-11T04:18:50.931Z,7.80
2017-05-11T04:21:20.704Z,7.80
2017-05-11T04:23:49.823Z,7.90
2017-05-11T04:26:18.869Z,7.80
2017-05-11T04:28:48.020Z,7.90
2017-05-11T04:31:17.830Z,7.90
2017-05-11T04:33:47.621Z,7.90
2017-05-11T04:36:16.667Z,8.00
2017-05-11T04:38:45.729Z,8.00
2017-05-11T04:41:14.831Z,8.10
2017-05-11T04:43:43.886Z,8.10
2017-05-11T04:46:12.923Z,8.20
2017-05-11T04:48:42.732Z,8.30
2017-05-11T04:51:12.547Z,8.40
2017-05-11T04:53:42.359Z,8.60
2017-05-11T04:56:12.133Z,8.70
2017-05-11T04:58:41.185Z,8.70
2017-05-11T05:01:10.234Z,8.90
2017-05-11T05:03:39.371Z,8.90
2017-05-11T05:06:09.146Z,8.90
2017-05-11T05:08:38.214Z,8.80
2017-05-11T05:11:07.255Z,8.90
2017-05-11T05:13:36.309Z,9.00
2017-05-11T05:16:06.119Z,8.80
2017-05-11T05:18:35.909Z,8.90
2017-05-11T05:21:04.946Z,8.90
2017-05-11T05:23:33.998Z,8.90
2017-05-11T05:26:03.047Z,8.90
2017-05-11T05:28:32.208Z,8.90
2017-05-11T05:31:01.298Z,9.00
2017-05-11T05:33:30.416Z,9.10
2017-05-11T05:36:00.196Z,9.00
2017-05-11T05:38:29.261Z,9.10
2017-05-11T05:40:58.420Z,9.20
2017-05-11T05:43:28.317Z,9.20
2017-05-11T05:45:58.114Z,9.20
2017-05-11T05:48:27.246Z,9.30
2017-05-11T05:50:57.018Z,9.40
2017-05-11T05:53:26.065Z,9.50
2017-05-11T05:55:55.127Z,9.50
2017-05-11T05:58:24.253Z,9.40
2017-05-11T06:00:53.286Z,9.50
2017-05-11T06:03:22.432Z,9.60
2017-05-11T06:05:52.329Z,9.60
2017-05-11T06:08:21.435Z,9.70
2017-05-11T06:10:51.218Z,9.70
2017-05-11T06:13:20.343Z,9.70
2017-05-11T06:15:50.122Z,9.70
2017-05-11T06:18:19.186Z,9.80
2017-05-11T06:20:48.243Z,9.90
2017-05-11T06:23:18.052Z,9.90
2017-05-11T06:25:47.269Z,9.90
2017-05-11T06:28:17.079Z,9.90
2017-05-11T06:30:46.883Z,10.00
2017-05-11T06:33:15.950Z,10.10
2017-05-11T06:35:45.099Z,10.30
2017-05-11T06:38:14.156Z,10.40
2017-05-11T06:40:43.209Z,10.60
2017-05-11T06:43:12.372Z,10.60
2017-05-11T06:45:42.197Z,10.70
2017-05-11T06:48:11.241Z,10.80
2017-05-11T06:50:40.393Z,10.90
2017-05-11T06:53:10.191Z,10.90
2017-05-11T06:55:40.016Z,10.90
2017-05-11T06:58:09.822Z,10.90
2017-05-11T07:00:39.628Z,11.00
2017-05-11T07:03:09.489Z,11.20
2017-05-11T07:05:38.638Z,11.40
2017-05-11T07:08:08.446Z,11.50
2017-05-11T07:10:38.242Z,11.60
2017-05-11T07:13:07.358Z,11.70
2017-05-11T07:15:37.160Z,11.60
2017-05-11T07:18:06.281Z,11.60
2017-05-11T07:20:36.182Z,11.60
2017-05-11T07:23:05.279Z,11.70
2017-05-11T07:25:35.097Z,11.70
2017-05-11T07:28:04.883Z,11.90
2017-05-11T07:30:34.006Z,12.10
2017-05-11T07:33:03.929Z,12.20
2017-05-11T07:35:33.845Z,11.90
2017-05-11T07:38:02.900Z,12.10
2017-05-11T07:40:31.930Z,12.30
2017-05-11T07:43:00.969Z,12.30
2017-05-11T07:45:30.002Z,12.50
2017-05-11T07:47:59.810Z,12.50
2017-05-11T07:50:29.621Z,12.40
2017-05-11T07:52:59.426Z,12.30
2017-05-11T07:55:28.624Z,12.30
2017-05-11T07:57:57.730Z,12.50
2017-05-11T08:00:27.537Z,12.60
2017-05-11T08:02:57.350Z,12.90
2017-05-11T08:05:26.450Z,12.80
2017-05-11T08:07:56.249Z,13.00
2017-05-11T08:10:25.356Z,12.80
2017-05-11T08:12:55.148Z,12.70
2017-05-11T08:15:24.270Z,12.90
2017-05-11T08:17:54.086Z,13.10
2017-05-11T08:20:23.875Z,13.20
2017-05-11T08:22:52.958Z,13.50
2017-05-11T08:25:22.006Z,13.70
2017-05-11T08:27:51.078Z,13.80
2017-05-11T08:30:20.895Z,13.70
2017-05-11T08:32:50.701Z,13.70
2017-05-11T08:35:20.514Z,13.50
2017-05-11T08:37:49.614Z,13.60
2017-05-11T08:40:19.418Z,13.70
2017-05-11T08:42:48.518Z,13.90
2017-05-11T08:45:18.314Z,14.10
2017-05-11T08:47:47.387Z,14.10
2017-05-11T08:50:16.535Z,14.20
2017-05-11T08:52:46.304Z,14.30
2017-05-11T08:55:15.342Z,14.30
2017-05-11T08:57:45.138Z,14.30
2017-05-11T09:00:14.241Z,14.60
2017-05-11T09:02:43.297Z,14.50
2017-05-11T09:05:12.342Z,14.60
2017-05-11T09:07:41.393Z,14.70
2017-05-11T09:10:10.445Z,14.80
2017-05-11T09:12:39.549Z,14.90
2017-05-11T09:15:09.334Z,15.00
2017-05-11T09:17:38.463Z,15.30
2017-05-11T09:20:08.243Z,15.30
2017-05-11T09:22:37.285Z,15.50
2017-05-11T09:25:06.369Z,15.70
2017-05-11T09:27:36.276Z,15.50
2017-05-11T09:30:06.057Z,15.70
2017-05-11T09:32:35.197Z,15.80
2017-05-11T09:35:05.011Z,15.80
2017-05-11T09:37:34.925Z,15.60
2017-05-11T09:40:04.830Z,15.70
2017-05-11T09:42:34.646Z,15.70
2017-05-11T09:45:03.707Z,15.90
2017-05-11T09:47:32.749Z,15.90
2017-05-11T09:50:01.797Z,16.20
2017-05-11T09:52:30.834Z,16.20
2017-05-11T09:55:00.746Z,15.90
2017-05-11T09:57:30.561Z,15.90
2017-05-11T10:00:00.458Z,15.90
2017-05-11T10:02:29.491Z,16.30
2017-05-11T10:04:58.549Z,16.20
2017-05-11T10:07:27.650Z,16.40
2017-05-11T10:09:56.713Z,16.60
2017-05-11T10:12:26.498Z,16.60
2017-05-11T10:14:55.559Z,16.50
2017-05-11T10:17:24.600Z,16.60
2017-05-11T10:19:53.701Z,16.70
2017-05-11T10:22:23.509Z,17.00
2017-05-11T10:24:52.578Z,16.70
2017-05-11T10:27:21.621Z,16.70
2017-05-11T10:29:50.667Z,16.90
2017-05-11T10:32:19.717Z,17.20
2017-05-11T10:34:48.795Z,17.00
2017-05-11T10:37:18.619Z,17.10
2017-05-11T10:39:47.667Z,17.20
2017-05-11T10:42:16.721Z,17.30
2017-05-11T10:44:45.781Z,17.30
2017-05-11T10:47:15.602Z,17.10
2017-05-11T10:49:45.425Z,17.10
2017-05-11T10:52:14.498Z,17.20
2017-05-11T10:54:43.539Z,17.50
2017-05-11T10:57:12.599Z,17.70
2017-05-11T10:59:42.410Z,17.80
2017-05-11T11:02:12.222Z,17.80
2017-05-11T11:04:42.035Z,17.20
2017-05-11T11:07:11.077Z,17.40
2017-05-11T11:09:40.987Z,17.50
2017-05-11T11:12:10.786Z,17.90
2017-05-11T11:14:39.890Z,18.30
2017-05-11T11:17:09.702Z,18.50
2017-05-11T11:19:39.530Z,18.60
2017-05-11T11:22:09.332Z,18.60
2017-05-11T11:24:39.143Z,18.60
2017-05-11T11:27:08.955Z,18.50
2017-05-11T11:29:38.755Z,18.70
2017-05-11T11:32:07.862Z,18.80
2017-05-11T11:34:37.678Z,18.90
2017-05-11T11:37:07.508Z,18.50
2017-05-11T11:39:36.581Z,18.60
2017-05-11T11:42:06.378Z,18.70
2017-05-11T11:44:35.436Z,19.00
2017-05-11T11:47:04.486Z,19.20
2017-05-11T11:49:34.297Z,19.50
2017-05-11T11:52:03.342Z,19.70
2017-05-11T11:54:32.418Z,19.90
2017-05-11T11:57:01.467Z,19.90
2017-05-11T11:59:30.529Z,20.10
2017-05-11T12:01:59.582Z,20.10
2017-05-11T12:04:29.411Z,20.10
2017-05-11T12:06:58.531Z,20.30
2017-05-11T12:09:28.366Z,21.30
2017-05-11T12:11:57.414Z,23.00
2017-05-11T12:14:26.473Z,24.80
2017-05-11T12:16:55.509Z,25.90
2017-05-11T12:19:24.639Z,26.90
2017-05-11T12:21:54.437Z,27.40
2017-05-11T12:24:24.249Z,27.40
2017-05-11T12:26:54.035Z,27.90
2017-05-11T12:29:23.171Z,29.60
2017-05-11T12:31:52.982Z,30.50
2017-05-11T12:34:22.069Z,32.20
2017-05-11T12:36:51.122Z,34.40
2017-05-11T12:39:20.850Z,33.70
2017-05-11T12:41:49.927Z,32.70
2017-05-11T12:44:18.958Z,33.00
2017-05-11T12:46:48.087Z,33.60
2017-05-11T12:49:17.129Z,33.50
2017-05-11T12:51:46.219Z,33.30
2017-05-11T12:54:15.348Z,32.60
2017-05-11T12:56:45.162Z,32.70
2017-05-11T12:59:14.967Z,33.20
2017-05-11T13:01:44.032Z,33.80
2017-05-11T13:04:13.165Z,33.20
2017-05-11T13:06:41.542Z,33.20
2017-05-11T13:09:10.592Z,33.70
2017-05-11T13:11:39.652Z,33.80
2017-05-11T13:14:08.706Z,34.40
2017-05-11T13:16:37.872Z,31.70
2017-05-11T13:19:06.963Z,30.00
2017-05-11T13:21:36.740Z,28.40
2017-05-11T13:24:05.856Z,28.00
2017-05-11T13:26:35.677Z,28.90
2017-05-11T13:29:05.479Z,29.80
2017-05-11T13:31:35.265Z,31.30
2017-05-11T13:34:04.397Z,31.50
2017-05-11T13:36:34.202Z,32.70
2017-05-11T13:39:04.001Z,32.10
2017-05-11T13:41:33.125Z,31.50
2017-05-11T13:44:02.209Z,31.00
2017-05-11T13:46:32.034Z,32.80
2017-05-11T13:49:01.835Z,32.70
2017-05-11T13:51:31.621Z,33.60
2017-05-11T13:54:00.745Z,32.70
2017-05-11T13:56:30.570Z,32.10
2017-05-11T13:59:00.364Z,32.60
2017-05-11T14:01:29.412Z,32.90
2017-05-11T14:03:58.470Z,31.80
2017-05-11T14:06:27.538Z,31.30
2017-05-11T14:08:56.602Z,31.10
2017-05-11T14:11:25.637Z,31.50
2017-05-11T14:13:54.738Z,32.70
2017-05-11T14:16:24.562Z,32.50
2017-05-11T14:18:54.359Z,32.50
2017-05-11T14:21:23.478Z,32.50
2017-05-11T14:23:53.279Z,31.10
2017-05-11T14:26:23.069Z,31.00
2017-05-11T14:28:52.203Z,31.40
2017-05-11T14:31:22.101Z,31.90
2017-05-11T14:33:51.886Z,32.00
2017-05-11T14:36:21.017Z,32.40
2017-05-11T14:38:50.817Z,31.90
2017-05-11T14:41:20.633Z,32.00
2017-05-11T14:43:50.558Z,32.00
2017-05-11T14:46:19.740Z,32.20
2017-05-11T14:48:48.774Z,31.50
2017-05-11T14:51:17.830Z,31.30
2017-05-11T14:53:46.872Z,31.50
2017-05-11T14:56:16.044Z,31.80
2017-05-11T14:58:45.857Z,31.20
2017-05-11T15:01:15.649Z,30.80
2017-05-11T15:03:44.795Z,31.50
2017-05-11T15:06:13.945Z,31.50
2017-05-11T15:08:43.742Z,31.60
2017-05-11T15:11:13.517Z,31.40
2017-05-11T15:13:42.562Z,30.50
2017-05-11T15:16:11.761Z,30.80
2017-05-11T15:18:40.857Z,30.80
2017-05-11T15:21:10.685Z,31.00
2017-05-11T15:23:40.483Z,31.10
2017-05-11T15:26:09.519Z,30.80
2017-05-11T15:28:38.676Z,30.30
2017-05-11T15:31:08.477Z,30.80
2017-05-11T15:33:37.530Z,30.60
2017-05-11T15:36:06.578Z,30.40
2017-05-11T15:38:35.694Z,30.40
2017-05-11T15:41:05.470Z,30.60
2017-05-11T15:43:34.547Z,31.00
2017-05-11T15:46:03.605Z,31.30
2017-05-11T15:48:32.687Z,30.70
2017-05-11T15:51:02.505Z,30.00
2017-05-11T15:53:32.406Z,29.60
2017-05-11T15:56:02.222Z,30.30
2017-05-11T15:58:32.023Z,30.20
2017-05-11T16:01:01.126Z,29.70
2017-05-11T16:03:30.945Z,29.80
2017-05-11T16:06:00.761Z,30.20
2017-05-11T16:08:30.574Z,29.80
2017-05-11T16:11:00.369Z,30.00
2017-05-11T16:13:29.398Z,29.80
2017-05-11T16:15:58.492Z,29.50
2017-05-11T16:18:27.539Z,29.70
2017-05-11T16:20:56.641Z,30.00
2017-05-11T16:23:25.742Z,29.70
2017-05-11T16:25:55.533Z,29.80
2017-05-11T16:28:24.653Z,29.70
2017-05-11T16:30:54.174Z,29.60
2017-05-11T16:33:23.949Z,29.90
2017-05-11T16:35:53.063Z,29.60
2017-05-11T16:38:22.162Z,29.40
2017-05-11T16:40:51.253Z,29.60
2017-05-11T16:43:20.287Z,29.40
2017-05-11T16:45:49.358Z,29.00
2017-05-11T16:48:19.142Z,28.80
2017-05-11T16:50:48.174Z,28.70
2017-05-11T16:53:17.244Z,28.70
2017-05-11T16:55:46.287Z,28.70
2017-05-11T16:58:15.333Z,28.70
2017-05-11T17:00:44.432Z,28.50
2017-05-11T17:03:14.245Z,27.80
2017-05-11T17:05:44.045Z,28.50
2017-05-11T17:08:13.147Z,28.50
2017-05-11T17:10:42.954Z,28.40
2017-05-11T17:13:12.073Z,28.50
2017-05-11T17:15:41.864Z,27.90
2017-05-11T17:18:10.922Z,27.40
2017-05-11T17:20:39.961Z,28.10
2017-05-11T17:23:09.772Z,27.90
2017-05-11T17:25:38.879Z,27.80
2017-05-11T17:28:08.786Z,27.60
2017-05-11T17:30:38.591Z,27.20
2017-05-11T17:33:07.660Z,26.90
2017-05-11T17:35:36.791Z,26.70
2017-05-11T17:38:06.563Z,26.90
2017-05-11T17:40:35.622Z,27.00
2017-05-11T17:43:04.695Z,27.00
2017-05-11T17:45:34.494Z,26.60
2017-05-11T17:48:03.628Z,26.20
2017-05-11T17:50:32.701Z,26.40
2017-05-11T17:53:02.501Z,26.10
2017-05-11T17:55:31.615Z,26.10
2017-05-11T17:58:01.418Z,25.80
2017-05-11T18:00:31.207Z,25.60
2017-05-11T18:03:00.336Z,25.10
2017-05-11T18:05:30.126Z,24.90
2017-05-11T18:07:59.175Z,24.70
2017-05-11T18:10:28.333Z,24.20
2017-05-11T18:12:58.107Z,24.00
2017-05-11T18:15:27.246Z,23.50
2017-05-11T18:17:57.046Z,22.90
2017-05-11T18:20:26.094Z,22.50
2017-05-11T18:22:55.242Z,22.30
2017-05-11T18:25:24.272Z,22.00
2017-05-11T18:27:53.332Z,21.60
2017-05-11T18:30:23.112Z,21.20
2017-05-11T18:32:52.255Z,20.80
2017-05-11T18:35:22.025Z,20.50
2017-05-11T18:37:51.077Z,20.10
2017-05-11T18:40:20.113Z,19.80
2017-05-11T18:42:49.921Z,19.30
2017-05-11T18:45:19.702Z,19.00
2017-05-11T18:47:48.813Z,18.70
2017-05-11T18:50:17.910Z,18.60
2017-05-11T18:52:47.727Z,18.40
2017-05-11T18:55:16.830Z,18.30
2017-05-11T18:57:46.623Z,18.00
2017-05-11T19:00:15.672Z,17.80
2017-05-11T19:02:44.827Z,17.70
2017-05-11T19:05:13.875Z,17.60
2017-05-11T19:07:43.018Z,17.40
2017-05-11T19:10:12.793Z,17.20
2017-05-11T19:12:41.843Z,17.10
2017-05-11T19:15:11.613Z,17.00
2017-05-11T19:17:40.734Z,16.90
2017-05-11T19:20:10.558Z,16.80
2017-05-11T19:22:40.371Z,16.70
2017-05-11T19:25:10.170Z,16.70
2017-05-11T19:27:39.225Z,16.50
2017-05-11T19:30:08.265Z,16.40
2017-05-11T19:32:38.077Z,16.30
2017-05-11T19:35:07.865Z,16.20
2017-05-11T19:37:36.984Z,16.20
2017-05-11T19:40:06.759Z,16.00
2017-05-11T19:42:35.857Z,15.90
2017-05-11T19:45:05.003Z,15.80
2017-05-11T19:47:34.909Z,15.80
2017-05-11T19:50:04.716Z,15.70
2017-05-11T19:52:34.538Z,15.60
2017-05-11T19:55:04.439Z,15.50
2017-05-11T19:57:33.472Z,15.50
2017-05-11T20:00:02.634Z,15.40
2017-05-11T20:02:31.730Z,15.30
2017-05-11T20:05:01.548Z,15.20
2017-05-11T20:07:31.361Z,15.20
2017-05-11T20:10:01.170Z,15.20
2017-05-11T20:12:30.212Z,15.10
2017-05-11T20:14:59.379Z,15.00
2017-05-11T20:17:29.149Z,14.90
2017-05-11T20:19:58.258Z,15.00
2017-05-11T20:22:28.142Z,14.80
2017-05-11T20:24:57.261Z,14.80
2017-05-11T20:27:26.481Z,14.80
2017-05-11T20:29:55.541Z,14.70
2017-05-11T20:32:24.586Z,14.70
2017-05-11T20:34:53.767Z,14.60
2017-05-11T20:37:23.575Z,14.60
2017-05-11T20:39:53.396Z,14.60
2017-05-11T20:42:23.196Z,14.60
2017-05-11T20:44:53.151Z,14.50
2017-05-11T20:47:22.232Z,14.50
2017-05-11T20:49:51.293Z,14.40
2017-05-11T20:52:20.403Z,14.30
2017-05-11T20:54:50.310Z,14.30
2017-05-11T20:57:20.125Z,14.20
2017-05-11T20:59:49.937Z,14.20
2017-05-11T21:02:19.752Z,14.10
2017-05-11T21:04:49.557Z,14.10
2017-05-11T21:07:19.345Z,14.10
2017-05-11T21:09:48.409Z,14.00
2017-05-11T21:12:17.469Z,14.00
2017-05-11T21:14:46.605Z,14.00
2017-05-11T21:17:16.412Z,14.00
2017-05-11T21:19:45.513Z,14.00
2017-05-11T21:22:15.297Z,14.00
2017-05-11T21:24:44.370Z,14.00
2017-05-11T21:27:13.430Z,14.00
2017-05-11T21:29:43.366Z,14.00
2017-05-11T21:32:12.411Z,14.00
2017-05-11T21:34:41.530Z,14.00
2017-05-11T21:37:11.342Z,13.90
2017-05-11T21:39:41.172Z,13.90
2017-05-11T21:42:10.215Z,13.90
2017-05-11T21:44:39.287Z,13.90
2017-05-11T21:47:08.354Z,13.80
2017-05-11T21:49:37.427Z,13.80
2017-05-11T21:52:06.456Z,13.80
2017-05-11T21:54:35.643Z,13.80
2017-05-11T21:57:04.686Z,13.60
2017-05-11T21:59:33.913Z,13.60
2017-05-11T22:02:02.959Z,13.50
2017-05-11T22:04:32.009Z,13.50
2017-05-11T22:07:01.797Z,13.50
2017-05-11T22:09:30.857Z,13.50
2017-05-11T22:11:59.929Z,13.40
2017-05-11T22:14:28.995Z,13.40
2017-05-11T22:16:58.101Z,13.30
2017-05-11T22:19:27.913Z,13.40
2017-05-11T22:21:57.741Z,13.40
2017-05-11T22:24:27.749Z,13.30
2017-05-11T22:26:56.763Z,13.20
2017-05-11T22:29:26.182Z,13.30
2017-05-11T22:31:55.221Z,13.20
2017-05-11T22:34:24.345Z,13.10
2017-05-11T22:36:54.185Z,13.00
2017-05-11T22:39:23.331Z,13.10
2017-05-11T22:41:52.440Z,13.00
2017-05-11T22:44:21.499Z,12.90
2017-05-11T22:46:50.952Z,12.80
2017-05-11T22:49:21.728Z,12.70
2017-05-11T22:51:50.911Z,12.70
2017-05-11T22:54:19.967Z,12.70
2017-05-11T22:56:49.039Z,12.60
2017-05-11T22:59:18.245Z,12.60
2017-05-11T23:01:47.957Z,12.40
2017-05-11T23:04:17.791Z,12.30
2017-05-11T23:06:46.841Z,12.20
2017-05-11T23:09:15.908Z,12.40
2017-05-11T23:11:45.062Z,12.20
2017-05-11T23:14:14.965Z,12.10
2017-05-11T23:16:44.796Z,12.00
2017-05-11T23:19:14.692Z,12.00
2017-05-11T23:21:43.750Z,11.90
2017-05-11T23:24:12.890Z,12.00
2017-05-11T23:26:42.721Z,12.00
2017-05-11T23:29:11.802Z,12.00
2017-05-11T23:31:41.700Z,11.90
2017-05-11T23:34:10.823Z,12.00
2017-05-11T23:36:39.897Z,11.90
2017-05-11T23:39:09.699Z,11.80
2017-05-11T23:41:38.763Z,11.80
2017-05-11T23:44:07.916Z,11.80
2017-05-11T23:46:36.973Z,11.70
2017-05-11T23:49:06.017Z,11.60
2017-05-11T23:51:35.181Z,11.70
2017-05-11T23:54:04.212Z,11.70
2017-05-11T23:56:33.291Z,11.60
2017-05-11T23:59:03.100Z,11.60
